Time,TemperatureF,DewpointF,PressureIn,WindDirection,WindDirectionDegrees,WindSpeedMPH,WindSpeedGustMPH,Humidity,HourlyPrecipIn,Conditions,Clouds,dailyrainin,SoftwareType,DateUTC
2013-01-21 00:03:00,10.0,-4.0,-100.00,SW,230,6.0,11.0,54,-99.99,,,-99.99,,2013-01-21 06:03:00,
2013-01-21 00:33:00,9.0,-4.0,-100.00,SW,230,5.0,11.0,53,-99.99,,,-99.99,,2013-01-21 06:33:00,
2013-01-21 00:43:00,9.0,-4.0,-100.00,SW,230,5.0,11.0,53,-99.99,,,-99.99,,2013-01-21 06:43:00,
2013-01-21 00:53:00,9.0,-4.0,-100.00,SW,230,5.0,11.0,53,-99.99,,,-99.99,,2013-01-21 06:53:00,
2013-01-21 01:03:00,10.0,-4.0,-100.00,SW,235,7.0,12.0,52,-99.99,,,-99.99,,2013-01-21 07:03:00,
2013-01-21 01:12:00,10.0,-4.0,-100.00,SW,235,7.0,12.0,52,-99.99,,,-99.99,,2013-01-21 07:12:00,
2013-01-21 01:22:00,10.0,-4.0,-100.00,SW,235,7.0,12.0,52,-99.99,,,-99.99,,2013-01-21 07:22:00,
2013-01-21 01:33:00,10.0,-4.0,-100.00,WSW,245,5.0,12.0,52,-99.99,,,-99.99,,2013-01-21 07:33:00,
2013-01-21 01:42:00,10.0,-4.0,-100.00,WSW,245,5.0,12.0,52,-99.99,,,-99.99,,2013-01-21 07:42:00,
2013-01-21 01:53:00,10.0,-4.0,-100.00,WSW,245,5.0,12.0,52,-99.99,,,-99.99,,2013-01-21 07:53:00,
2013-01-21 02:03:00,10.0,-4.0,-100.00,SW,235,6.0,9.0,53,-99.99,,,-99.99,,2013-01-21 08:03:00,
2013-01-21 02:13:00,10.0,-4.0,-100.00,SW,235,6.0,9.0,53,-99.99,,,-99.99,,2013-01-21 08:13:00,
2013-01-21 02:23:00,10.0,-4.0,-100.00,SW,235,6.0,9.0,53,-99.99,,,-99.99,,2013-01-21 08:23:00,
2013-01-21 02:32:00,10.0,-4.0,-100.00,WSW,255,6.0,11.0,53,-99.99,,,-99.99,,2013-01-21 08:32:00,
2013-01-21 02:43:00,10.0,-4.0,-100.00,WSW,255,6.0,11.0,53,-99.99,,,-99.99,,2013-01-21 08:43:00,
2013-01-21 02:53:00,10.0,-4.0,-100.00,WSW,255,6.0,11.0,53,-99.99,,,-99.99,,2013-01-21 08:53:00,
2013-01-21 03:02:00,10.0,-4.0,-100.00,WSW,255,6.0,11.0,53,-99.99,,,-99.99,,2013-01-21 09:02:00,
2013-01-21 03:12:00,10.0,-4.0,-100.00,WSW,255,6.0,11.0,53,-99.99,,,-99.99,,2013-01-21 09:12:00,
2013-01-21 03:33:00,9.0,-1.0,-100.00,WSW,245,7.0,12.0,62,-99.99,,,-99.99,,2013-01-21 09:33:00,
2013-01-21 03:43:00,9.0,-1.0,-100.00,WSW,245,7.0,12.0,62,-99.99,,,-99.99,,2013-01-21 09:43:00,
2013-01-21 03:53:00,9.0,-1.0,-100.00,WSW,245,7.0,12.0,62,-99.99,,,-99.99,,2013-01-21 09:53:00,
2013-01-21 04:02:00,9.0,1.0,-100.00,SW,220,5.0,11.0,67,-99.99,,,-99.99,,2013-01-21 10:02:00,
2013-01-21 04:12:00,9.0,1.0,-100.00,SW,220,5.0,11.0,67,-99.99,,,-99.99,,2013-01-21 10:12:00,
2013-01-21 04:22:00,9.0,1.0,-100.00,SW,220,5.0,11.0,67,-99.99,,,-99.99,,2013-01-21 10:22:00,
2013-01-21 04:32:00,9.0,0.0,-100.00,SW,235,12.0,16.0,66,-99.99,,,-99.99,,2013-01-21 10:32:00,
2013-01-21 04:43:00,9.0,0.0,-100.00,SW,235,12.0,16.0,66,-99.99,,,-99.99,,2013-01-21 10:43:00,
2013-01-21 04:53:00,9.0,0.0,-100.00,SW,235,12.0,16.0,66,-99.99,,,-99.99,,2013-01-21 10:53:00,
2013-01-21 05:02:00,8.0,-1.0,-100.00,WSW,240,11.0,20.0,66,-99.99,,,-99.99,,2013-01-21 11:02:00,
2013-01-21 05:13:00,8.0,-1.0,-100.00,WSW,240,11.0,20.0,66,-99.99,,,-99.99,,2013-01-21 11:13:00,
2013-01-21 05:23:00,8.0,-1.0,-100.00,WSW,240,11.0,20.0,66,-99.99,,,-99.99,,2013-01-21 11:23:00,
2013-01-21 05:33:00,6.0,-2.0,-100.00,West,260,7.0,20.0,71,-99.99,,,-99.99,,2013-01-21 11:33:00,
2013-01-21 05:43:00,6.0,-2.0,-100.00,West,260,7.0,20.0,71,-99.99,,,-99.99,,2013-01-21 11:43:00,
2013-01-21 05:53:00,6.0,-2.0,-100.00,West,260,7.0,20.0,71,-99.99,,,-99.99,,2013-01-21 11:53:00,
2013-01-21 06:02:00,5.0,-3.0,-100.00,WSW,245,7.0,11.0,70,-99.99,,,-99.99,,2013-01-21 12:02:00,
2013-01-21 06:12:00,5.0,-3.0,-100.00,WSW,245,7.0,11.0,70,-99.99,,,-99.99,,2013-01-21 12:12:00,
2013-01-21 06:22:00,5.0,-3.0,-100.00,WSW,245,7.0,11.0,70,-99.99,,,-99.99,,2013-01-21 12:22:00,
2013-01-21 06:32:00,5.0,-3.0,-100.00,WSW,255,6.0,9.0,70,-99.99,,,-99.99,,2013-01-21 12:32:00,
2013-01-21 06:42:00,5.0,-3.0,-100.00,WSW,255,6.0,9.0,70,-99.99,,,-99.99,,2013-01-21 12:42:00,
2013-01-21 07:33:00,4.0,-3.0,-100.00,West,260,6.0,12.0,72,-99.99,,,-99.99,,2013-01-21 13:33:00,
2013-01-21 07:43:00,4.0,-3.0,-100.00,West,260,6.0,12.0,72,-99.99,,,-99.99,,2013-01-21 13:43:00,
2013-01-21 07:54:00,4.0,-3.0,-100.00,West,260,6.0,12.0,72,-99.99,,,-99.99,,2013-01-21 13:54:00,
2013-01-21 08:03:00,4.0,-2.0,-100.00,West,265,5.0,11.0,73,-99.99,,,-99.99,,2013-01-21 14:03:00,
2013-01-21 08:12:00,4.0,-2.0,-100.00,West,265,5.0,11.0,73,-99.99,,,-99.99,,2013-01-21 14:12:00,
2013-01-21 08:23:00,4.0,-2.0,-100.00,West,265,5.0,11.0,73,-99.99,,,-99.99,,2013-01-21 14:23:00,
2013-01-21 08:32:00,4.0,-3.0,-100.00,West,265,10.0,14.0,73,-99.99,,,-99.99,,2013-01-21 14:32:00,
2013-01-21 08:43:00,4.0,-3.0,-100.00,West,265,10.0,14.0,73,-99.99,,,-99.99,,2013-01-21 14:43:00,
2013-01-21 08:53:00,4.0,-3.0,-100.00,West,265,10.0,14.0,73,-99.99,,,-99.99,,2013-01-21 14:53:00,
2013-01-21 09:03:00,4.0,-3.0,-100.00,West,270,11.0,18.0,73,-99.99,,,-99.99,,2013-01-21 15:03:00,
2013-01-21 09:13:00,4.0,-3.0,-100.00,West,270,11.0,18.0,73,-99.99,,,-99.99,,2013-01-21 15:13:00,
2013-01-21 09:23:00,4.0,-3.0,-100.00,West,270,11.0,18.0,73,-99.99,,,-99.99,,2013-01-21 15:23:00,
2013-01-21 09:33:00,5.0,-6.0,-100.00,WSW,255,9.0,22.0,60,-99.99,,,-99.99,,2013-01-21 15:33:00,
2013-01-21 09:43:00,5.0,-6.0,-100.00,WSW,255,9.0,22.0,60,-99.99,,,-99.99,,2013-01-21 15:43:00,
2013-01-21 09:53:00,5.0,-6.0,-100.00,WSW,255,9.0,22.0,60,-99.99,,,-99.99,,2013-01-21 15:53:00,
2013-01-21 10:03:00,4.0,-9.0,-100.00,WSW,245,14.0,29.0,56,-99.99,,,-99.99,,2013-01-21 16:03:00,
2013-01-21 10:12:00,4.0,-9.0,-100.00,WSW,245,14.0,29.0,56,-99.99,,,-99.99,,2013-01-21 16:12:00,
2013-01-21 10:23:00,4.0,-9.0,-100.00,WSW,245,14.0,29.0,56,-99.99,,,-99.99,,2013-01-21 16:23:00,
2013-01-21 10:33:00,4.0,-9.0,-100.00,WSW,240,15.0,28.0,54,-99.99,,,-99.99,,2013-01-21 16:33:00,
2013-01-21 10:43:00,4.0,-9.0,-100.00,WSW,240,15.0,28.0,54,-99.99,,,-99.99,,2013-01-21 16:43:00,
2013-01-21 10:53:00,4.0,-9.0,-100.00,WSW,240,15.0,28.0,54,-99.99,,,-99.99,,2013-01-21 16:53:00,
2013-01-21 11:02:00,3.0,-9.0,-100.00,SW,235,11.0,26.0,55,-99.99,,,-99.99,,2013-01-21 17:02:00,
2013-01-21 11:12:00,3.0,-9.0,-100.00,SW,235,11.0,26.0,55,-99.99,,,-99.99,,2013-01-21 17:12:00,
2013-01-21 11:23:00,3.0,-9.0,-100.00,SW,235,11.0,26.0,55,-99.99,,,-99.99,,2013-01-21 17:23:00,
2013-01-21 11:33:00,3.0,-10.0,-100.00,WSW,240,16.0,27.0,53,-99.99,,,-99.99,,2013-01-21 17:33:00,
2013-01-21 11:43:00,3.0,-10.0,-100.00,WSW,240,16.0,27.0,53,-99.99,,,-99.99,,2013-01-21 17:43:00,
2013-01-21 11:53:00,3.0,-10.0,-100.00,WSW,240,16.0,27.0,53,-99.99,,,-99.99,,2013-01-21 17:53:00,
2013-01-21 12:03:00,4.0,-11.0,-100.00,WSW,255,16.0,27.0,51,-99.99,,,-99.99,,2013-01-21 18:03:00,
2013-01-21 12:12:00,4.0,-11.0,-100.00,WSW,255,16.0,27.0,51,-99.99,,,-99.99,,2013-01-21 18:12:00,
2013-01-21 12:22:00,4.0,-11.0,-100.00,WSW,255,16.0,27.0,51,-99.99,,,-99.99,,2013-01-21 18:22:00,
2013-01-21 12:33:00,4.0,-9.0,-100.00,WSW,240,13.0,23.0,52,-99.99,,,-99.99,,2013-01-21 18:33:00,
2013-01-21 12:43:00,4.0,-9.0,-100.00,WSW,240,13.0,23.0,52,-99.99,,,-99.99,,2013-01-21 18:43:00,
2013-01-21 12:53:00,4.0,-9.0,-100.00,WSW,240,13.0,23.0,52,-99.99,,,-99.99,,2013-01-21 18:53:00,
2013-01-21 13:03:00,4.0,-10.0,-100.00,SW,215,14.0,27.0,51,-99.99,,,-99.99,,2013-01-21 19:03:00,
2013-01-21 13:12:00,4.0,-10.0,-100.00,SW,215,14.0,27.0,51,-99.99,,,-99.99,,2013-01-21 19:12:00,
2013-01-21 13:22:00,4.0,-10.0,-100.00,SW,215,14.0,27.0,51,-99.99,,,-99.99,,2013-01-21 19:22:00,
2013-01-21 13:33:00,5.0,-10.0,-100.00,WSW,245,12.0,24.0,50,-99.99,,,-99.99,,2013-01-21 19:33:00,
2013-01-21 13:43:00,5.0,-10.0,-100.00,WSW,245,12.0,24.0,50,-99.99,,,-99.99,,2013-01-21 19:43:00,
2013-01-21 13:53:00,5.0,-10.0,-100.00,WSW,245,12.0,24.0,50,-99.99,,,-99.99,,2013-01-21 19:53:00,
2013-01-21 14:03:00,4.0,-10.0,-100.00,West,260,17.0,25.0,51,-99.99,,,-99.99,,2013-01-21 20:03:00,
2013-01-21 14:12:00,4.0,-10.0,-100.00,West,260,17.0,25.0,51,-99.99,,,-99.99,,2013-01-21 20:12:00,
2013-01-21 14:23:00,4.0,-10.0,-100.00,West,260,17.0,25.0,51,-99.99,,,-99.99,,2013-01-21 20:23:00,
2013-01-21 14:33:00,5.0,-9.0,-100.00,SW,230,13.0,28.0,51,-99.99,,,-99.99,,2013-01-21 20:33:00,
2013-01-21 14:43:00,5.0,-9.0,-100.00,SW,230,13.0,28.0,51,-99.99,,,-99.99,,2013-01-21 20:43:00,
2013-01-21 14:53:00,5.0,-9.0,-100.00,SW,230,13.0,28.0,51,-99.99,,,-99.99,,2013-01-21 20:53:00,
2013-01-21 15:03:00,5.0,-9.0,-100.00,SW,230,14.0,26.0,50,-99.99,,,-99.99,,2013-01-21 21:03:00,
2013-01-21 15:12:00,5.0,-9.0,-100.00,SW,230,14.0,26.0,50,-99.99,,,-99.99,,2013-01-21 21:12:00,
2013-01-21 15:23:00,5.0,-9.0,-100.00,SW,230,14.0,26.0,50,-99.99,,,-99.99,,2013-01-21 21:23:00,
2013-01-21 15:33:00,4.0,-11.0,-100.00,SW,225,15.0,23.0,51,-99.99,,,-99.99,,2013-01-21 21:33:00,
2013-01-21 15:43:00,4.0,-11.0,-100.00,SW,225,15.0,23.0,51,-99.99,,,-99.99,,2013-01-21 21:43:00,
2013-01-21 15:53:00,4.0,-11.0,-100.00,SW,225,15.0,23.0,51,-99.99,,,-99.99,,2013-01-21 21:53:00,
2013-01-21 16:03:00,4.0,-10.0,-100.00,WSW,240,13.0,23.0,52,-99.99,,,-99.99,,2013-01-21 22:03:00,
2013-01-21 16:12:00,4.0,-10.0,-100.00,WSW,240,13.0,23.0,52,-99.99,,,-99.99,,2013-01-21 22:12:00,
2013-01-21 16:23:00,4.0,-10.0,-100.00,WSW,240,13.0,23.0,52,-99.99,,,-99.99,,2013-01-21 22:23:00,
2013-01-21 16:33:00,4.0,-10.0,-100.00,WSW,255,10.0,21.0,52,-99.99,,,-99.99,,2013-01-21 22:33:00,
2013-01-21 16:43:00,4.0,-10.0,-100.00,WSW,255,10.0,21.0,52,-99.99,,,-99.99,,2013-01-21 22:43:00,
2013-01-21 16:53:00,4.0,-10.0,-100.00,WSW,255,10.0,21.0,52,-99.99,,,-99.99,,2013-01-21 22:53:00,
2013-01-21 17:03:00,3.0,-11.0,-100.00,SW,235,12.0,21.0,51,-99.99,,,-99.99,,2013-01-21 23:03:00,
2013-01-21 17:12:00,3.0,-11.0,-100.00,SW,235,12.0,21.0,51,-99.99,,,-99.99,,2013-01-21 23:12:00,
2013-01-21 17:23:00,3.0,-11.0,-100.00,SW,235,12.0,21.0,51,-99.99,,,-99.99,,2013-01-21 23:23:00,
2013-01-21 17:33:00,2.0,-12.0,-100.00,WSW,245,12.0,22.0,51,-99.99,,,-99.99,,2013-01-21 23:33:00,
2013-01-21 17:43:00,2.0,-12.0,-100.00,WSW,245,12.0,22.0,51,-99.99,,,-99.99,,2013-01-21 23:43:00,
2013-01-21 17:53:00,2.0,-12.0,-100.00,WSW,245,12.0,22.0,51,-99.99,,,-99.99,,2013-01-21 23:53:00,
2013-01-21 18:02:00,2.0,-12.0,-100.00,WSW,245,11.0,18.0,52,-99.99,,,-99.99,,2013-01-22 00:02:00,
2013-01-21 18:12:00,2.0,-12.0,-100.00,WSW,245,11.0,18.0,52,-99.99,,,-99.99,,2013-01-22 00:12:00,
2013-01-21 18:22:00,2.0,-12.0,-100.00,WSW,245,11.0,18.0,52,-99.99,,,-99.99,,2013-01-22 00:22:00,
2013-01-21 18:33:00,1.0,-12.0,-100.00,WSW,240,10.0,17.0,53,-99.99,,,-99.99,,2013-01-22 00:33:00,
2013-01-21 18:43:00,1.0,-12.0,-100.00,WSW,240,10.0,17.0,53,-99.99,,,-99.99,,2013-01-22 00:43:00,
2013-01-21 18:53:00,1.0,-12.0,-100.00,WSW,240,10.0,17.0,53,-99.99,,,-99.99,,2013-01-22 00:53:00,
2013-01-21 19:02:00,1.0,-12.0,-100.00,WSW,255,10.0,18.0,53,-99.99,,,-99.99,,2013-01-22 01:02:00,
2013-01-21 19:12:00,1.0,-12.0,-100.00,WSW,255,10.0,18.0,53,-99.99,,,-99.99,,2013-01-22 01:12:00,
2013-01-21 19:23:00,1.0,-12.0,-100.00,WSW,255,10.0,18.0,53,-99.99,,,-99.99,,2013-01-22 01:23:00,
2013-01-21 19:32:00,1.0,-12.0,-100.00,WSW,255,10.0,18.0,53,-99.99,,,-99.99,,2013-01-22 01:32:00,
2013-01-21 19:40:00,0.0,-12.0,-100.00,West,260,7.0,12.0,56,-99.99,,,-99.99,,2013-01-22 01:40:00,
2013-01-21 20:02:00,0.0,-12.0,-100.00,West,260,7.0,12.0,56,-99.99,,,-99.99,,2013-01-22 02:02:00,
2013-01-21 20:12:00,0.0,-12.0,-100.00,West,260,7.0,12.0,56,-99.99,,,-99.99,,2013-01-22 02:12:00,
2013-01-21 20:22:00,0.0,-12.0,-100.00,West,260,7.0,12.0,56,-99.99,,,-99.99,,2013-01-22 02:22:00,
2013-01-21 20:32:00,0.0,-12.0,-100.00,West,260,7.0,12.0,56,-99.99,,,-99.99,,2013-01-22 02:32:00,
2013-01-21 21:33:00,-1.0,-12.0,-100.00,WSW,245,6.0,14.0,59,-99.99,,,-99.99,,2013-01-22 03:33:00,
2013-01-21 21:42:00,-1.0,-12.0,-100.00,WSW,245,6.0,14.0,59,-99.99,,,-99.99,,2013-01-22 03:42:00,
2013-01-21 21:53:00,-1.0,-12.0,-100.00,WSW,245,6.0,14.0,59,-99.99,,,-99.99,,2013-01-22 03:53:00,
2013-01-21 22:02:00,-1.0,-12.0,-100.00,West,265,9.0,19.0,59,-99.99,,,-99.99,,2013-01-22 04:02:00,
2013-01-21 22:12:00,-1.0,-12.0,-100.00,West,265,9.0,19.0,59,-99.99,,,-99.99,,2013-01-22 04:12:00,
2013-01-21 22:22:00,-1.0,-12.0,-100.00,West,265,9.0,19.0,59,-99.99,,,-99.99,,2013-01-22 04:22:00,
2013-01-21 22:32:00,-1.0,-12.0,-100.00,West,265,9.0,19.0,59,-99.99,,,-99.99,,2013-01-22 04:32:00,
2013-01-21 23:33:00,-3.0,-14.0,-100.00,West,275,11.0,20.0,58,-99.99,,,-99.99,,2013-01-22 05:33:00,
2013-01-21 23:43:00,-3.0,-14.0,-100.00,West,275,11.0,20.0,58,-99.99,,,-99.99,,2013-01-22 05:43:00,
2013-01-21 23:53:00,-3.0,-14.0,-100.00,West,275,11.0,20.0,58,-99.99,,,-99.99,,2013-01-22 05:53:00,